Terminal Aerodrome Forecast
Issued by NWS

Home | Current Version | Previous Version | Text Only | Print | Product List | Glossary On
Versions: 1 2 3 4 5 6 7 8 9 10 11 12 13 14 15 16 17 18 19 20 21 22 23 24 25 26 27 28 29 30 31 32 33
000
FTAK31 PANC 301121
TAFACD
TAF
PACD 301121Z 3012/3112 03012KT P6SM VCSH SCT024 OVC050
      TEMPO 3012/3014 BKN024
     FM301400 04025G35KT 4SM -SN SCT010 OVC020
     FM301800 02030G42KT 2SM -SN BLSN BKN012 OVC020
     FM310000 01030G42KT 5SM -SN SCT010 OVC025
     FM310300 01030G40KT 3SM -SN BKN012 OVC020=

USA.gov is the U.S. government's official web portal to all federal, state and local government web resources and services.